YYWE weather

CLOSED Yarrowee Airport
Victoria, Australia

Public forecast

Using degrees Celsius for public forecast. Weather courtesy of forecast.io.

Closest aviation weather report (METAR) to Yarrowee Airport

Closest report is Avalon Airport, 38.4 nm (71.1 km) ESE. Retrieved 2019/10/23 06:30 UTC (0 seconds ago):

YMAV 230630Z AUTO 09009KT 9999 // NCD 25/06 Q1016 RF000/0000

Closest aviation forecast (TAF) to Yarrowee Airport

Closest forecast is Avalon Airport, 38.4 nm (71.1 km) ESE. Retrieved 2019/10/23 06:00 UTC (9 minutes ago):

TAF YMAV 230453Z 2306/2406 13008KT CAVOK FM231100 VRB05KT CAVOK FM231800 04010KT CAVOK FM240000 35016G26KT CAVOK